createdAt,value
2023-05-27T07:23:14.198Z,0.20
2023-05-27T07:27:17.929Z,0.30
2023-05-27T07:31:25.197Z,0.35
2023-05-27T07:35:28.990Z,0.30
2023-05-27T07:39:36.702Z,0.40
2023-05-27T07:43:40.644Z,0.20
2023-05-27T07:47:44.435Z,0.30
2023-05-27T07:51:48.285Z,0.30
2023-05-27T07:55:53.600Z,0.30
2023-05-27T07:59:57.409Z,0.20
2023-05-27T08:04:09.053Z,0.30
2023-05-27T08:08:16.430Z,0.40
2023-05-27T08:12:21.871Z,0.47
2023-05-27T08:16:25.709Z,0.50
2023-05-27T08:20:29.504Z,0.28
2023-05-27T08:24:33.398Z,0.30
2023-05-27T08:28:45.803Z,0.22
2023-05-27T08:32:51.161Z,0.20
2023-05-27T08:36:58.788Z,0.20
2023-05-27T08:41:02.555Z,0.20
2023-05-27T08:45:11.197Z,0.38
2023-05-27T08:49:15.083Z,0.47
2023-05-27T08:53:21.393Z,0.40
2023-05-27T08:57:31.479Z,0.30
2023-05-27T09:01:37.141Z,0.40
2023-05-27T09:05:41.105Z,0.50
2023-05-27T09:09:45.891Z,0.50
2023-05-27T09:13:49.980Z,0.50
2023-05-27T09:17:55.207Z,0.40
2023-05-27T09:21:59.167Z,0.30
2023-05-27T09:26:03.127Z,0.40
2023-05-27T09:30:11.583Z,0.30
2023-05-27T09:34:20.658Z,0.40
2023-05-27T09:38:24.528Z,0.60
2023-05-27T09:42:31.708Z,0.40
2023-05-27T09:46:35.955Z,0.38
2023-05-27T09:50:42.842Z,0.43
2023-05-27T09:54:46.986Z,0.40
2023-05-27T09:58:50.805Z,0.68
2023-05-27T10:07:00.450Z,0.50
2023-05-27T10:11:04.795Z,0.50
2023-05-27T10:15:10.705Z,0.47
2023-05-27T10:19:14.469Z,0.30
2023-05-27T10:23:22.923Z,0.30
2023-05-27T10:27:26.633Z,0.30
2023-05-27T10:31:32.872Z,0.43
2023-05-27T10:35:43.097Z,0.47
2023-05-27T10:39:59.377Z,0.28
2023-05-27T10:44:03.236Z,0.38
2023-05-27T10:48:21.781Z,0.85
2023-05-27T10:52:32.521Z,0.30
2023-05-27T10:56:38.888Z,0.30
2023-05-27T11:00:44.859Z,0.40
2023-05-27T11:04:50.197Z,0.40
2023-05-27T11:08:53.916Z,0.40
2023-05-27T11:12:59.412Z,0.50
2023-05-27T11:17:03.182Z,0.60
2023-05-27T11:21:07.485Z,0.43
2023-05-27T11:25:11.794Z,0.30
2023-05-27T11:29:17.530Z,0.50
2023-05-27T11:33:32.786Z,0.40
2023-05-27T11:37:40.612Z,0.50
2023-05-27T11:41:52.760Z,0.50
2023-05-27T11:46:08.180Z,0.50
2023-05-27T11:50:12.699Z,0.50
2023-05-27T11:54:25.544Z,0.55
2023-05-27T11:58:29.315Z,0.60
2023-05-27T12:02:34.766Z,0.40
2023-05-27T12:06:39.591Z,0.50
2023-05-27T12:10:43.643Z,0.50
2023-05-27T12:14:47.327Z,0.30
2023-05-27T12:18:52.511Z,0.55
2023-05-27T12:22:56.459Z,0.40
2023-05-27T12:27:01.587Z,0.47
2023-05-27T12:31:06.321Z,0.50
2023-05-27T12:35:12.914Z,0.50
2023-05-27T12:39:17.105Z,0.50
2023-05-27T12:43:21.442Z,0.60
2023-05-27T12:47:25.400Z,0.32
2023-05-27T12:51:31.928Z,0.50
2023-05-27T12:55:36.207Z,0.55
2023-05-27T12:59:43.629Z,0.57
2023-05-27T13:03:47.667Z,0.20
2023-05-27T13:08:01.645Z,0.40
2023-05-27T13:12:06.025Z,0.40
2023-05-27T13:16:12.948Z,0.57
2023-05-27T13:20:17.718Z,0.30
2023-05-27T13:24:23.483Z,0.60
2023-05-27T13:28:27.598Z,0.63
2023-05-27T13:32:31.693Z,0.30
2023-05-27T13:36:35.440Z,0.47
2023-05-27T13:40:40.552Z,0.30
2023-05-27T13:44:47.361Z,1.55
2023-05-27T13:48:51.892Z,0.38
2023-05-27T13:52:55.703Z,0.45
2023-05-27T13:57:00.943Z,0.30
2023-05-27T14:01:04.961Z,0.40
2023-05-27T14:05:11.524Z,0.40
2023-05-27T14:09:15.406Z,0.47
2023-05-27T14:13:20.729Z,0.50
2023-05-27T14:17:24.648Z,0.40
2023-05-27T14:21:30.828Z,0.40
2023-05-27T14:25:34.655Z,0.20
2023-05-27T14:29:40.086Z,0.30
2023-05-27T14:33:43.784Z,0.60
2023-05-27T14:37:47.564Z,0.20
2023-05-27T14:41:51.453Z,0.30
2023-05-27T14:45:56.753Z,0.47
2023-05-27T14:50:00.521Z,0.40
2023-05-27T14:54:04.918Z,0.40
2023-05-27T14:58:08.742Z,0.30
2023-05-27T15:02:16.039Z,0.40
2023-05-27T15:06:19.926Z,0.30
2023-05-27T15:10:24.859Z,0.40
2023-05-27T15:14:29.207Z,0.45
2023-05-27T15:18:34.905Z,0.45
2023-05-27T15:22:40.812Z,0.50
2023-05-27T15:26:47.019Z,0.30
2023-05-27T15:30:52.760Z,0.38
2023-05-27T15:35:00.387Z,0.38
2023-05-27T15:39:04.305Z,0.50
2023-05-27T15:43:09.717Z,0.50
2023-05-27T15:47:13.600Z,0.30
2023-05-27T15:51:18.942Z,0.43
2023-05-27T15:55:25.371Z,0.43
2023-05-27T15:59:29.140Z,0.40
2023-05-27T16:03:33.065Z,0.30
2023-05-27T16:07:46.879Z,0.60
2023-05-27T16:11:50.702Z,0.43
2023-05-27T16:15:55.796Z,0.45
2023-05-27T16:24:07.833Z,0.35
2023-05-27T16:28:12.214Z,0.35
2023-05-27T16:32:18.634Z,0.40
2023-05-27T16:36:22.427Z,0.30
2023-05-27T16:40:27.584Z,0.35
2023-05-27T16:48:35.076Z,0.30
2023-05-27T16:52:39.033Z,0.30
2023-05-27T16:56:44.222Z,1.05
2023-05-27T17:00:59.395Z,0.40
2023-05-27T17:05:03.450Z,0.47
2023-05-27T17:09:07.945Z,0.40
2023-05-27T17:13:14.406Z,0.30
2023-05-27T17:17:18.580Z,0.32
2023-05-27T17:21:23.291Z,0.28
2023-05-27T17:25:27.337Z,0.40
2023-05-27T17:29:32.690Z,0.30
2023-05-27T17:33:36.455Z,0.38
2023-05-27T17:37:43.762Z,0.30
2023-05-27T17:41:47.478Z,0.32
2023-05-27T17:45:54.136Z,0.20
2023-05-27T17:49:58.049Z,0.38
2023-05-27T17:54:01.987Z,0.50
2023-05-27T17:58:05.930Z,0.40
2023-05-27T18:02:11.477Z,0.50
2023-05-27T18:06:15.402Z,0.45
2023-05-27T18:10:22.315Z,0.40
2023-05-27T18:14:26.960Z,0.43
2023-05-27T18:18:32.199Z,0.50
2023-05-27T18:22:36.171Z,0.70
2023-05-27T18:26:39.960Z,0.45
2023-05-27T18:30:45.669Z,0.50
2023-05-27T18:34:50.905Z,0.52
2023-05-27T18:43:00.961Z,0.40
2023-05-27T18:47:04.914Z,0.57
2023-05-27T18:51:11.061Z,0.40
2023-05-27T18:55:14.788Z,0.70
2023-05-27T18:59:18.559Z,0.70
2023-05-27T19:03:22.582Z,0.50
2023-05-27T19:07:27.735Z,0.50
2023-05-27T19:11:31.476Z,0.60
2023-05-27T19:15:35.289Z,0.70
2023-05-27T19:19:39.127Z,0.80
2023-05-27T19:23:44.370Z,0.80
2023-05-27T19:27:48.098Z,0.80
2023-05-27T19:31:52.728Z,0.80
2023-05-27T19:35:58.049Z,0.98
2023-05-27T19:40:03.280Z,0.63
2023-05-27T19:44:07.237Z,0.90
2023-05-27T19:48:13.492Z,1.02
2023-05-27T19:52:17.524Z,0.85
2023-05-27T19:56:24.193Z,0.77
2023-05-27T20:00:28.355Z,0.70
2023-05-27T20:04:32.408Z,0.80
2023-05-27T20:08:36.273Z,1.02
2023-05-27T20:12:45.820Z,1.17
2023-05-27T20:16:49.654Z,1.05
2023-05-27T20:20:54.161Z,0.90
2023-05-27T20:24:58.407Z,0.90
2023-05-27T20:29:06.611Z,1.27
2023-05-27T20:33:10.734Z,1.23
2023-05-27T20:37:16.821Z,0.95
2023-05-27T20:41:21.339Z,0.98
2023-05-27T20:45:26.470Z,1.00
2023-05-27T20:49:32.119Z,1.10
2023-05-27T20:53:38.342Z,1.40
2023-05-27T20:57:42.277Z,1.33
2023-05-27T21:01:48.411Z,1.05
2023-05-27T21:05:52.309Z,1.13
2023-05-27T21:09:56.245Z,1.00
2023-05-27T21:14:00.281Z,1.00
2023-05-27T21:18:07.036Z,0.93
2023-05-27T21:22:10.830Z,0.90
2023-05-27T21:26:14.725Z,1.30
2023-05-27T21:30:18.998Z,1.02
2023-05-27T21:34:25.454Z,1.25
2023-05-27T21:38:32.650Z,1.10
2023-05-27T21:42:37.234Z,1.15
2023-05-27T21:46:41.177Z,1.20
2023-05-27T21:50:46.382Z,1.20
2023-05-27T21:54:53.425Z,1.30
2023-05-27T21:58:59.742Z,1.55
2023-05-27T22:03:03.865Z,1.50
2023-05-27T22:07:10.495Z,1.50
2023-05-27T22:11:14.323Z,1.73
2023-05-27T22:15:18.561Z,1.52
2023-05-27T22:19:22.803Z,1.70
2023-05-27T22:23:27.881Z,1.65
2023-05-27T22:27:31.586Z,1.60
2023-05-27T22:31:35.669Z,1.75
2023-05-27T22:35:39.613Z,1.70
2023-05-27T22:39:46.116Z,2.00
2023-05-27T22:43:49.911Z,2.20
2023-05-27T22:47:54.512Z,1.55
2023-05-27T22:51:58.396Z,1.80
2023-05-27T22:56:03.712Z,1.67
2023-05-27T23:00:09.289Z,1.52
2023-05-27T23:04:15.647Z,1.33
2023-05-27T23:08:19.509Z,1.65
2023-05-27T23:12:25.955Z,1.70
2023-05-27T23:16:31.792Z,1.85
2023-05-27T23:20:36.145Z,1.20
2023-05-27T23:24:39.928Z,1.58
2023-05-27T23:28:45.335Z,1.80
2023-05-27T23:32:49.348Z,1.80
2023-05-27T23:36:53.160Z,1.98
2023-05-27T23:40:56.947Z,1.70
2023-05-27T23:45:02.350Z,1.80
